sensor_id;sensor_type;location;lat;lon;timestamp;temperature;humidity
10042;DHT22;5061;49.068;12.058;2023-04-03T00:01:46;3.70;99.90
10042;DHT22;5061;49.068;12.058;2023-04-03T00:05:07;3.80;99.90
10042;DHT22;5061;49.068;12.058;2023-04-03T00:08:28;3.80;99.90
10042;DHT22;5061;49.068;12.058;2023-04-03T00:11:51;3.70;99.90
10042;DHT22;5061;49.068;12.058;2023-04-03T00:15:11;3.70;99.90
10042;DHT22;5061;49.068;12.058;2023-04-03T00:18:32;3.70;99.90
10042;DHT22;5061;49.068;12.058;2023-04-03T00:21:53;3.60;99.90
10042;DHT22;5061;49.068;12.058;2023-04-03T00:25:13;3.70;99.90
10042;DHT22;5061;49.068;12.058;2023-04-03T00:28:34;3.60;99.90
10042;DHT22;5061;49.068;12.058;2023-04-03T00:31:55;3.60;99.90
10042;DHT22;5061;49.068;12.058;2023-04-03T00:35:16;3.60;99.90
10042;DHT22;5061;49.068;12.058;2023-04-03T00:38:37;3.50;99.90
10042;DHT22;5061;49.068;12.058;2023-04-03T00:41:58;3.50;99.90
10042;DHT22;5061;49.068;12.058;2023-04-03T00:48:46;3.50;99.90
10042;DHT22;5061;49.068;12.058;2023-04-03T00:52:11;3.50;99.90
10042;DHT22;5061;49.068;12.058;2023-04-03T00:55:35;3.50;99.90
10042;DHT22;5061;49.068;12.058;2023-04-03T00:59:06;3.40;99.90
10042;DHT22;5061;49.068;12.058;2023-04-03T01:02:28;3.50;99.90
10042;DHT22;5061;49.068;12.058;2023-04-03T01:05:49;3.50;99.90
10042;DHT22;5061;49.068;12.058;2023-04-03T01:09:10;3.40;99.90
10042;DHT22;5061;49.068;12.058;2023-04-03T01:12:37;3.40;99.90
10042;DHT22;5061;49.068;12.058;2023-04-03T01:16:06;3.40;99.90
10042;DHT22;5061;49.068;12.058;2023-04-03T01:19:26;3.40;99.90
10042;DHT22;5061;49.068;12.058;2023-04-03T01:26:17;3.40;99.90
10042;DHT22;5061;49.068;12.058;2023-04-03T01:29:39;3.30;99.90
10042;DHT22;5061;49.068;12.058;2023-04-03T01:33:00;3.30;99.90
10042;DHT22;5061;49.068;12.058;2023-04-03T01:36:27;3.30;99.90
10042;DHT22;5061;49.068;12.058;2023-04-03T01:39:48;3.30;99.90
10042;DHT22;5061;49.068;12.058;2023-04-03T01:43:09;3.30;99.90
10042;DHT22;5061;49.068;12.058;2023-04-03T01:46:30;3.30;99.90
10042;DHT22;5061;49.068;12.058;2023-04-03T01:49:51;3.30;99.90
10042;DHT22;5061;49.068;12.058;2023-04-03T01:53:12;3.30;99.90
10042;DHT22;5061;49.068;12.058;2023-04-03T01:56:33;3.30;99.90
10042;DHT22;5061;49.068;12.058;2023-04-03T01:59:54;3.30;99.90
10042;DHT22;5061;49.068;12.058;2023-04-03T02:03:15;3.20;99.90
10042;DHT22;5061;49.068;12.058;2023-04-03T02:06:35;3.20;99.90
10042;DHT22;5061;49.068;12.058;2023-04-03T02:09:56;3.20;99.90
10042;DHT22;5061;49.068;12.058;2023-04-03T02:13:17;3.20;99.90
10042;DHT22;5061;49.068;12.058;2023-04-03T02:16:38;3.20;99.90
10042;DHT22;5061;49.068;12.058;2023-04-03T02:19:59;3.20;99.90
10042;DHT22;5061;49.068;12.058;2023-04-03T02:23:19;3.20;99.90
10042;DHT22;5061;49.068;12.058;2023-04-03T02:26:40;3.20;99.90
10042;DHT22;5061;49.068;12.058;2023-04-03T02:30:01;3.20;99.90
10042;DHT22;5061;49.068;12.058;2023-04-03T02:33:21;3.20;99.90
10042;DHT22;5061;49.068;12.058;2023-04-03T02:36:42;3.10;99.90
10042;DHT22;5061;49.068;12.058;2023-04-03T02:40:03;3.10;99.90
10042;DHT22;5061;49.068;12.058;2023-04-03T02:43:24;3.10;99.90
10042;DHT22;5061;49.068;12.058;2023-04-03T02:46:45;3.10;99.90
10042;DHT22;5061;49.068;12.058;2023-04-03T02:50:06;3.10;99.90
10042;DHT22;5061;49.068;12.058;2023-04-03T02:53:26;3.10;99.90
10042;DHT22;5061;49.068;12.058;2023-04-03T02:56:47;3.10;99.90
10042;DHT22;5061;49.068;12.058;2023-04-03T03:00:08;3.00;99.90
10042;DHT22;5061;49.068;12.058;2023-04-03T03:03:30;3.00;99.90
10042;DHT22;5061;49.068;12.058;2023-04-03T03:06:50;3.00;99.90
10042;DHT22;5061;49.068;12.058;2023-04-03T03:10:11;3.00;99.90
10042;DHT22;5061;49.068;12.058;2023-04-03T03:13:32;3.00;99.90
10042;DHT22;5061;49.068;12.058;2023-04-03T03:16:52;3.00;99.90
10042;DHT22;5061;49.068;12.058;2023-04-03T03:20:13;3.00;99.90
10042;DHT22;5061;49.068;12.058;2023-04-03T03:23:37;3.00;99.90
10042;DHT22;5061;49.068;12.058;2023-04-03T03:26:57;3.00;99.90
10042;DHT22;5061;49.068;12.058;2023-04-03T03:30:18;3.00;99.90
10042;DHT22;5061;49.068;12.058;2023-04-03T03:33:39;3.00;99.90
10042;DHT22;5061;49.068;12.058;2023-04-03T03:37:00;3.00;99.90
10042;DHT22;5061;49.068;12.058;2023-04-03T03:40:20;3.00;99.90
10042;DHT22;5061;49.068;12.058;2023-04-03T03:43:41;3.10;99.90
10042;DHT22;5061;49.068;12.058;2023-04-03T03:47:02;3.00;99.90
10042;DHT22;5061;49.068;12.058;2023-04-03T03:50:23;3.00;99.90
10042;DHT22;5061;49.068;12.058;2023-04-03T03:53:44;3.00;99.90
10042;DHT22;5061;49.068;12.058;2023-04-03T03:57:04;3.00;99.90
10042;DHT22;5061;49.068;12.058;2023-04-03T04:00:25;2.90;99.90
10042;DHT22;5061;49.068;12.058;2023-04-03T04:03:46;2.90;99.90
10042;DHT22;5061;49.068;12.058;2023-04-03T04:07:06;2.90;99.90
10042;DHT22;5061;49.068;12.058;2023-04-03T04:10:27;2.90;99.90
10042;DHT22;5061;49.068;12.058;2023-04-03T04:13:47;2.90;99.90
10042;DHT22;5061;49.068;12.058;2023-04-03T04:17:08;2.90;99.90
10042;DHT22;5061;49.068;12.058;2023-04-03T04:20:29;2.90;99.90
10042;DHT22;5061;49.068;12.058;2023-04-03T04:23:49;2.90;99.90
10042;DHT22;5061;49.068;12.058;2023-04-03T04:27:10;2.90;99.90
10042;DHT22;5061;49.068;12.058;2023-04-03T04:30:30;2.90;99.90
10042;DHT22;5061;49.068;12.058;2023-04-03T04:33:53;2.80;99.90
10042;DHT22;5061;49.068;12.058;2023-04-03T04:37:13;2.80;99.90
10042;DHT22;5061;49.068;12.058;2023-04-03T04:40:34;2.80;99.90
10042;DHT22;5061;49.068;12.058;2023-04-03T04:43:55;2.80;99.90
10042;DHT22;5061;49.068;12.058;2023-04-03T04:47:16;2.80;99.90
10042;DHT22;5061;49.068;12.058;2023-04-03T04:50:36;2.80;99.90
10042;DHT22;5061;49.068;12.058;2023-04-03T04:53:57;2.80;99.90
10042;DHT22;5061;49.068;12.058;2023-04-03T04:57:17;2.70;99.90
10042;DHT22;5061;49.068;12.058;2023-04-03T05:00:38;2.80;99.90
10042;DHT22;5061;49.068;12.058;2023-04-03T05:03:59;2.70;99.90
10042;DHT22;5061;49.068;12.058;2023-04-03T05:07:19;2.80;99.90
10042;DHT22;5061;49.068;12.058;2023-04-03T05:10:40;2.70;99.90
10042;DHT22;5061;49.068;12.058;2023-04-03T05:14:01;2.70;99.90
10042;DHT22;5061;49.068;12.058;2023-04-03T05:17:22;2.70;99.90
10042;DHT22;5061;49.068;12.058;2023-04-03T05:20:43;2.60;99.90
10042;DHT22;5061;49.068;12.058;2023-04-03T05:24:04;2.60;99.90
10042;DHT22;5061;49.068;12.058;2023-04-03T05:27:24;2.70;99.90
10042;DHT22;5061;49.068;12.058;2023-04-03T05:30:45;2.70;99.90
10042;DHT22;5061;49.068;12.058;2023-04-03T05:34:06;2.70;99.90
10042;DHT22;5061;49.068;12.058;2023-04-03T05:37:26;2.70;99.90
10042;DHT22;5061;49.068;12.058;2023-04-03T05:40:47;2.70;99.90
10042;DHT22;5061;49.068;12.058;2023-04-03T05:44:08;2.70;99.90
10042;DHT22;5061;49.068;12.058;2023-04-03T05:47:28;2.70;99.90
10042;DHT22;5061;49.068;12.058;2023-04-03T05:50:49;2.70;99.90
10042;DHT22;5061;49.068;12.058;2023-04-03T05:54:15;2.70;99.90
10042;DHT22;5061;49.068;12.058;2023-04-03T05:57:36;2.80;99.90
10042;DHT22;5061;49.068;12.058;2023-04-03T06:00:57;2.80;99.90
10042;DHT22;5061;49.068;12.058;2023-04-03T06:04:17;2.80;99.90
10042;DHT22;5061;49.068;12.058;2023-04-03T06:07:39;2.80;99.90
10042;DHT22;5061;49.068;12.058;2023-04-03T06:11:00;2.80;99.90
10042;DHT22;5061;49.068;12.058;2023-04-03T06:14:22;2.90;99.90
10042;DHT22;5061;49.068;12.058;2023-04-03T06:17:43;2.90;99.90
10042;DHT22;5061;49.068;12.058;2023-04-03T06:21:04;2.90;99.90
10042;DHT22;5061;49.068;12.058;2023-04-03T06:24:25;3.00;99.90
10042;DHT22;5061;49.068;12.058;2023-04-03T06:27:45;3.00;99.90
10042;DHT22;5061;49.068;12.058;2023-04-03T06:31:06;3.00;99.90
10042;DHT22;5061;49.068;12.058;2023-04-03T06:34:26;3.10;99.90
10042;DHT22;5061;49.068;12.058;2023-04-03T06:37:47;3.10;99.90
10042;DHT22;5061;49.068;12.058;2023-04-03T06:41:08;3.10;99.90
10042;DHT22;5061;49.068;12.058;2023-04-03T06:44:29;3.10;99.90
10042;DHT22;5061;49.068;12.058;2023-04-03T06:47:50;3.10;99.90
10042;DHT22;5061;49.068;12.058;2023-04-03T06:54:38;3.20;99.90
10042;DHT22;5061;49.068;12.058;2023-04-03T06:58:00;3.20;99.90
10042;DHT22;5061;49.068;12.058;2023-04-03T07:01:21;3.30;99.90
10042;DHT22;5061;49.068;12.058;2023-04-03T07:04:42;3.30;99.90
10042;DHT22;5061;49.068;12.058;2023-04-03T07:08:03;3.30;99.90
10042;DHT22;5061;49.068;12.058;2023-04-03T07:11:23;3.40;99.90
10042;DHT22;5061;49.068;12.058;2023-04-03T07:14:44;3.40;99.90
10042;DHT22;5061;49.068;12.058;2023-04-03T07:18:05;3.50;99.90
10042;DHT22;5061;49.068;12.058;2023-04-03T07:21:26;3.50;99.90
10042;DHT22;5061;49.068;12.058;2023-04-03T07:24:50;3.50;99.90
10042;DHT22;5061;49.068;12.058;2023-04-03T07:28:11;3.50;99.90
10042;DHT22;5061;49.068;12.058;2023-04-03T07:31:32;3.60;99.90
10042;DHT22;5061;49.068;12.058;2023-04-03T07:34:54;3.60;99.90
10042;DHT22;5061;49.068;12.058;2023-04-03T07:38:15;3.70;99.90
10042;DHT22;5061;49.068;12.058;2023-04-03T07:41:36;3.70;99.90
10042;DHT22;5061;49.068;12.058;2023-04-03T07:44:57;3.70;99.90
10042;DHT22;5061;49.068;12.058;2023-04-03T07:48:19;3.80;99.90
10042;DHT22;5061;49.068;12.058;2023-04-03T07:51:41;3.80;99.90
10042;DHT22;5061;49.068;12.058;2023-04-03T07:55:02;3.80;99.90
10042;DHT22;5061;49.068;12.058;2023-04-03T07:58:22;3.90;99.90
10042;DHT22;5061;49.068;12.058;2023-04-03T08:01:43;3.90;99.90
10042;DHT22;5061;49.068;12.058;2023-04-03T08:05:04;3.90;99.90
10042;DHT22;5061;49.068;12.058;2023-04-03T08:08:25;3.90;99.90
10042;DHT22;5061;49.068;12.058;2023-04-03T08:11:46;4.00;99.90
10042;DHT22;5061;49.068;12.058;2023-04-03T08:15:07;4.00;99.90
10042;DHT22;5061;49.068;12.058;2023-04-03T08:18:28;4.00;99.90
10042;DHT22;5061;49.068;12.058;2023-04-03T08:21:49;4.10;99.90
10042;DHT22;5061;49.068;12.058;2023-04-03T08:25:10;4.10;99.90
10042;DHT22;5061;49.068;12.058;2023-04-03T08:28:30;4.10;99.90
10042;DHT22;5061;49.068;12.058;2023-04-03T08:31:51;4.10;99.90
10042;DHT22;5061;49.068;12.058;2023-04-03T08:35:12;4.10;99.90
10042;DHT22;5061;49.068;12.058;2023-04-03T08:38:33;4.10;99.90
10042;DHT22;5061;49.068;12.058;2023-04-03T08:41:58;4.10;99.90
10042;DHT22;5061;49.068;12.058;2023-04-03T08:45:46;4.00;99.90
10042;DHT22;5061;49.068;12.058;2023-04-03T08:49:37;4.00;99.90
10042;DHT22;5061;49.068;12.058;2023-04-03T08:52:57;4.00;99.90
10042;DHT22;5061;49.068;12.058;2023-04-03T08:56:19;4.00;99.90
10042;DHT22;5061;49.068;12.058;2023-04-03T08:59:40;4.00;99.90
10042;DHT22;5061;49.068;12.058;2023-04-03T09:03:01;4.10;99.90
10042;DHT22;5061;49.068;12.058;2023-04-03T09:06:27;4.10;99.90
10042;DHT22;5061;49.068;12.058;2023-04-03T09:09:51;4.10;99.90
10042;DHT22;5061;49.068;12.058;2023-04-03T09:16:54;4.20;99.90
10042;DHT22;5061;49.068;12.058;2023-04-03T09:23:58;4.20;99.90
10042;DHT22;5061;49.068;12.058;2023-04-03T09:27:19;4.20;99.90
10042;DHT22;5061;49.068;12.058;2023-04-03T09:30:40;4.30;99.90
10042;DHT22;5061;49.068;12.058;2023-04-03T09:34:04;4.30;99.90
10042;DHT22;5061;49.068;12.058;2023-04-03T09:37:54;4.40;99.90
10042;DHT22;5061;49.068;12.058;2023-04-03T09:41:17;4.50;99.90
10042;DHT22;5061;49.068;12.058;2023-04-03T09:44:39;4.70;99.90
10042;DHT22;5061;49.068;12.058;2023-04-03T09:48:21;4.80;99.90
10042;DHT22;5061;49.068;12.058;2023-04-03T09:51:42;4.90;99.90
10042;DHT22;5061;49.068;12.058;2023-04-03T09:55:10;4.90;99.90
10042;DHT22;5061;49.068;12.058;2023-04-03T09:58:38;5.00;99.90
10042;DHT22;5061;49.068;12.058;2023-04-03T10:02:22;4.90;99.90
10042;DHT22;5061;49.068;12.058;2023-04-03T10:05:46;4.90;99.90
10042;DHT22;5061;49.068;12.058;2023-04-03T10:09:23;4.90;99.90
10042;DHT22;5061;49.068;12.058;2023-04-03T10:12:44;4.80;99.90
10042;DHT22;5061;49.068;12.058;2023-04-03T10:16:12;4.70;99.90
10042;DHT22;5061;49.068;12.058;2023-04-03T10:19:48;4.60;99.90
10042;DHT22;5061;49.068;12.058;2023-04-03T10:23:26;4.50;99.90
10042;DHT22;5061;49.068;12.058;2023-04-03T10:27:08;4.50;99.90
10042;DHT22;5061;49.068;12.058;2023-04-03T10:34:35;4.40;99.90
10042;DHT22;5061;49.068;12.058;2023-04-03T10:38:20;4.50;99.90
10042;DHT22;5061;49.068;12.058;2023-04-03T10:41:41;4.40;99.90
10042;DHT22;5061;49.068;12.058;2023-04-03T10:49:31;4.30;99.90
10042;DHT22;5061;49.068;12.058;2023-04-03T10:53:02;4.30;99.90
10042;DHT22;5061;49.068;12.058;2023-04-03T10:56:48;4.40;99.90
10042;DHT22;5061;49.068;12.058;2023-04-03T11:00:20;4.50;99.90
10042;DHT22;5061;49.068;12.058;2023-04-03T11:03:51;4.50;99.90
10042;DHT22;5061;49.068;12.058;2023-04-03T11:07:33;4.60;99.90
10042;DHT22;5061;49.068;12.058;2023-04-03T11:11:00;4.70;99.90
10042;DHT22;5061;49.068;12.058;2023-04-03T11:14:35;4.70;99.90
10042;DHT22;5061;49.068;12.058;2023-04-03T11:18:04;4.80;99.90
10042;DHT22;5061;49.068;12.058;2023-04-03T11:21:32;4.80;99.90
10042;DHT22;5061;49.068;12.058;2023-04-03T11:28:30;5.00;99.90
10042;DHT22;5061;49.068;12.058;2023-04-03T11:32:34;5.00;99.90
10042;DHT22;5061;49.068;12.058;2023-04-03T11:36:03;5.10;99.90
10042;DHT22;5061;49.068;12.058;2023-04-03T11:39:34;5.10;99.90
10042;DHT22;5061;49.068;12.058;2023-04-03T11:46:19;4.90;99.90
10042;DHT22;5061;49.068;12.058;2023-04-03T11:50:37;5.00;99.90
10042;DHT22;5061;49.068;12.058;2023-04-03T12:01:44;5.30;99.90
10042;DHT22;5061;49.068;12.058;2023-04-03T12:05:37;5.50;99.90
10042;DHT22;5061;49.068;12.058;2023-04-03T12:08:58;5.70;99.90
10042;DHT22;5061;49.068;12.058;2023-04-03T12:15:52;6.10;99.90
10042;DHT22;5061;49.068;12.058;2023-04-03T12:22:35;6.20;99.90
10042;DHT22;5061;49.068;12.058;2023-04-03T12:26:08;6.20;99.90
10042;DHT22;5061;49.068;12.058;2023-04-03T12:29:56;6.10;99.90
10042;DHT22;5061;49.068;12.058;2023-04-03T12:33:47;6.30;99.90
10042;DHT22;5061;49.068;12.058;2023-04-03T12:44:56;6.70;99.90
10042;DHT22;5061;49.068;12.058;2023-04-03T12:48:25;6.60;99.90
10042;DHT22;5061;49.068;12.058;2023-04-03T12:51:47;6.70;99.90
10042;DHT22;5061;49.068;12.058;2023-04-03T12:55:17;6.90;99.90
10042;DHT22;5061;49.068;12.058;2023-04-03T12:58:38;7.00;99.90
10042;DHT22;5061;49.068;12.058;2023-04-03T13:02:00;7.00;99.90
10042;DHT22;5061;49.068;12.058;2023-04-03T13:05:22;7.00;99.90
10042;DHT22;5061;49.068;12.058;2023-04-03T13:08:55;7.10;99.90
10042;DHT22;5061;49.068;12.058;2023-04-03T13:12:17;7.30;99.90
10042;DHT22;5061;49.068;12.058;2023-04-03T13:15:47;7.50;99.90
10042;DHT22;5061;49.068;12.058;2023-04-03T13:19:18;7.60;99.90
10042;DHT22;5061;49.068;12.058;2023-04-03T13:26:20;7.90;99.90
10042;DHT22;5061;49.068;12.058;2023-04-03T13:29:42;8.00;99.90
10042;DHT22;5061;49.068;12.058;2023-04-03T13:33:20;8.20;99.90
10042;DHT22;5061;49.068;12.058;2023-04-03T13:36:45;8.30;99.90
10042;DHT22;5061;49.068;12.058;2023-04-03T13:43:30;8.50;99.90
10042;DHT22;5061;49.068;12.058;2023-04-03T13:47:16;8.50;99.90
10042;DHT22;5061;49.068;12.058;2023-04-03T13:51:00;8.50;99.90
10042;DHT22;5061;49.068;12.058;2023-04-03T13:54:41;8.60;99.90
10042;DHT22;5061;49.068;12.058;2023-04-03T14:01:44;8.90;99.90
10042;DHT22;5061;49.068;12.058;2023-04-03T14:05:05;9.10;99.90
10042;DHT22;5061;49.068;12.058;2023-04-03T14:08:28;9.10;99.90
10042;DHT22;5061;49.068;12.058;2023-04-03T14:11:52;9.30;99.90
10042;DHT22;5061;49.068;12.058;2023-04-03T14:15:19;9.60;99.90
10042;DHT22;5061;49.068;12.058;2023-04-03T14:18:40;9.70;99.90
10042;DHT22;5061;49.068;12.058;2023-04-03T14:22:17;9.90;99.90
10042;DHT22;5061;49.068;12.058;2023-04-03T14:25:39;9.90;99.90
10042;DHT22;5061;49.068;12.058;2023-04-03T14:29:00;9.60;99.90
10042;DHT22;5061;49.068;12.058;2023-04-03T14:32:23;9.40;99.90
10042;DHT22;5061;49.068;12.058;2023-04-03T14:35:43;9.40;99.90
10042;DHT22;5061;49.068;12.058;2023-04-03T14:39:05;9.40;99.90
10042;DHT22;5061;49.068;12.058;2023-04-03T14:42:30;9.50;99.90
10042;DHT22;5061;49.068;12.058;2023-04-03T14:45:51;9.50;99.90
10042;DHT22;5061;49.068;12.058;2023-04-03T14:49:15;9.50;99.90
10042;DHT22;5061;49.068;12.058;2023-04-03T14:52:36;9.60;99.90
10042;DHT22;5061;49.068;12.058;2023-04-03T14:55:56;9.60;99.90
10042;DHT22;5061;49.068;12.058;2023-04-03T14:59:18;9.60;99.90
10042;DHT22;5061;49.068;12.058;2023-04-03T15:02:40;9.70;99.90
10042;DHT22;5061;49.068;12.058;2023-04-03T15:06:01;9.80;99.90
10042;DHT22;5061;49.068;12.058;2023-04-03T15:09:24;9.80;99.90
10042;DHT22;5061;49.068;12.058;2023-04-03T15:12:46;9.60;99.90
10042;DHT22;5061;49.068;12.058;2023-04-03T15:16:16;9.60;99.90
10042;DHT22;5061;49.068;12.058;2023-04-03T15:19:38;9.50;99.90
10042;DHT22;5061;49.068;12.058;2023-04-03T15:23:00;9.50;99.90
10042;DHT22;5061;49.068;12.058;2023-04-03T15:26:24;9.40;99.90
10042;DHT22;5061;49.068;12.058;2023-04-03T15:29:47;9.30;99.90
10042;DHT22;5061;49.068;12.058;2023-04-03T15:33:08;9.20;99.90
10042;DHT22;5061;49.068;12.058;2023-04-03T15:36:29;9.20;99.90
10042;DHT22;5061;49.068;12.058;2023-04-03T15:39:49;9.20;99.90
10042;DHT22;5061;49.068;12.058;2023-04-03T15:43:10;9.10;99.90
10042;DHT22;5061;49.068;12.058;2023-04-03T15:46:32;9.10;99.90
10042;DHT22;5061;49.068;12.058;2023-04-03T15:49:54;9.10;99.90
10042;DHT22;5061;49.068;12.058;2023-04-03T15:53:15;9.00;99.90
10042;DHT22;5061;49.068;12.058;2023-04-03T15:56:36;8.90;99.90
10042;DHT22;5061;49.068;12.058;2023-04-03T15:59:57;8.90;99.90
10042;DHT22;5061;49.068;12.058;2023-04-03T16:03:20;8.90;99.90
10042;DHT22;5061;49.068;12.058;2023-04-03T16:06:42;8.80;99.90
10042;DHT22;5061;49.068;12.058;2023-04-03T16:10:03;8.80;99.90
10042;DHT22;5061;49.068;12.058;2023-04-03T16:13:24;8.70;99.90
10042;DHT22;5061;49.068;12.058;2023-04-03T16:16:45;8.60;99.90
10042;DHT22;5061;49.068;12.058;2023-04-03T16:20:07;8.30;99.90
10042;DHT22;5061;49.068;12.058;2023-04-03T16:23:29;8.10;99.90
10042;DHT22;5061;49.068;12.058;2023-04-03T16:26:50;7.80;99.90
10042;DHT22;5061;49.068;12.058;2023-04-03T16:30:10;7.60;99.90
10042;DHT22;5061;49.068;12.058;2023-04-03T16:33:31;7.50;99.90
10042;DHT22;5061;49.068;12.058;2023-04-03T16:36:56;7.40;99.90
10042;DHT22;5061;49.068;12.058;2023-04-03T16:40:16;7.20;96.60
10042;DHT22;5061;49.068;12.058;2023-04-03T16:43:37;7.00;99.90
10042;DHT22;5061;49.068;12.058;2023-04-03T16:46:58;6.80;95.40
10042;DHT22;5061;49.068;12.058;2023-04-03T16:50:19;6.70;94.20
10042;DHT22;5061;49.068;12.058;2023-04-03T16:53:39;6.50;93.70
10042;DHT22;5061;49.068;12.058;2023-04-03T16:57:00;6.40;93.60
10042;DHT22;5061;49.068;12.058;2023-04-03T17:00:21;6.20;93.50
10042;DHT22;5061;49.068;12.058;2023-04-03T17:03:42;6.10;93.50
10042;DHT22;5061;49.068;12.058;2023-04-03T17:07:03;5.90;93.60
10042;DHT22;5061;49.068;12.058;2023-04-03T17:10:26;5.80;93.40
10042;DHT22;5061;49.068;12.058;2023-04-03T17:13:47;5.70;93.60
10042;DHT22;5061;49.068;12.058;2023-04-03T17:17:08;5.60;93.70
10042;DHT22;5061;49.068;12.058;2023-04-03T17:20:29;5.50;93.50
10042;DHT22;5061;49.068;12.058;2023-04-03T17:23:54;5.40;93.60
10042;DHT22;5061;49.068;12.058;2023-04-03T17:27:17;5.20;93.60
10042;DHT22;5061;49.068;12.058;2023-04-03T17:30:38;5.10;93.60
10042;DHT22;5061;49.068;12.058;2023-04-03T17:33:58;5.00;93.60
10042;DHT22;5061;49.068;12.058;2023-04-03T17:37:22;4.90;93.60
10042;DHT22;5061;49.068;12.058;2023-04-03T17:40:43;4.80;93.80
10042;DHT22;5061;49.068;12.058;2023-04-03T17:44:05;4.70;93.90
10042;DHT22;5061;49.068;12.058;2023-04-03T17:47:26;4.70;93.80
10042;DHT22;5061;49.068;12.058;2023-04-03T17:50:46;4.50;93.70
10042;DHT22;5061;49.068;12.058;2023-04-03T17:54:07;4.50;93.80
10042;DHT22;5061;49.068;12.058;2023-04-03T17:57:28;4.30;93.80
10042;DHT22;5061;49.068;12.058;2023-04-03T18:00:50;4.30;93.80
10042;DHT22;5061;49.068;12.058;2023-04-03T18:04:12;4.20;93.80
10042;DHT22;5061;49.068;12.058;2023-04-03T18:07:32;4.10;93.70
10042;DHT22;5061;49.068;12.058;2023-04-03T18:10:53;4.00;93.80
10042;DHT22;5061;49.068;12.058;2023-04-03T18:14:17;3.90;93.90
10042;DHT22;5061;49.068;12.058;2023-04-03T18:17:38;3.80;93.90
10042;DHT22;5061;49.068;12.058;2023-04-03T18:20:58;3.80;93.90
10042;DHT22;5061;49.068;12.058;2023-04-03T18:24:21;3.70;93.90
10042;DHT22;5061;49.068;12.058;2023-04-03T18:27:43;3.60;94.00
10042;DHT22;5061;49.068;12.058;2023-04-03T18:31:07;3.60;94.00
10042;DHT22;5061;49.068;12.058;2023-04-03T18:34:30;3.50;94.10
10042;DHT22;5061;49.068;12.058;2023-04-03T18:37:51;3.50;94.20
10042;DHT22;5061;49.068;12.058;2023-04-03T18:41:11;3.40;94.30
10042;DHT22;5061;49.068;12.058;2023-04-03T18:44:33;3.30;94.40
10042;DHT22;5061;49.068;12.058;2023-04-03T18:47:54;3.30;94.40
10042;DHT22;5061;49.068;12.058;2023-04-03T18:51:16;3.30;94.50
10042;DHT22;5061;49.068;12.058;2023-04-03T18:54:37;3.30;94.60
10042;DHT22;5061;49.068;12.058;2023-04-03T18:57:58;3.20;94.60
10042;DHT22;5061;49.068;12.058;2023-04-03T19:01:18;3.20;94.70
10042;DHT22;5061;49.068;12.058;2023-04-03T19:04:39;3.10;94.60
10042;DHT22;5061;49.068;12.058;2023-04-03T19:08:00;3.00;94.70
10042;DHT22;5061;49.068;12.058;2023-04-03T19:11:21;3.00;94.80
10042;DHT22;5061;49.068;12.058;2023-04-03T19:14:42;3.00;94.90
10042;DHT22;5061;49.068;12.058;2023-04-03T19:18:03;3.00;95.00
10042;DHT22;5061;49.068;12.058;2023-04-03T19:21:23;2.90;95.10
10042;DHT22;5061;49.068;12.058;2023-04-03T19:24:44;2.90;95.30
10042;DHT22;5061;49.068;12.058;2023-04-03T19:28:08;2.90;95.30
10042;DHT22;5061;49.068;12.058;2023-04-03T19:31:28;2.80;95.40
10042;DHT22;5061;49.068;12.058;2023-04-03T19:34:51;2.80;95.60
10042;DHT22;5061;49.068;12.058;2023-04-03T19:38:11;2.80;95.60
10042;DHT22;5061;49.068;12.058;2023-04-03T19:41:34;2.80;95.60
10042;DHT22;5061;49.068;12.058;2023-04-03T19:44:55;2.80;95.70
10042;DHT22;5061;49.068;12.058;2023-04-03T19:48:16;2.80;95.80
10042;DHT22;5061;49.068;12.058;2023-04-03T19:51:37;2.80;95.90
10042;DHT22;5061;49.068;12.058;2023-04-03T19:54:58;2.80;96.00
10042;DHT22;5061;49.068;12.058;2023-04-03T19:58:18;2.80;96.10
10042;DHT22;5061;49.068;12.058;2023-04-03T20:01:39;2.80;96.10
10042;DHT22;5061;49.068;12.058;2023-04-03T20:05:00;2.70;96.10
10042;DHT22;5061;49.068;12.058;2023-04-03T20:08:21;2.60;96.20
10042;DHT22;5061;49.068;12.058;2023-04-03T20:11:42;2.60;96.30
10042;DHT22;5061;49.068;12.058;2023-04-03T20:15:06;2.60;96.40
10042;DHT22;5061;49.068;12.058;2023-04-03T20:18:28;2.60;96.50
10042;DHT22;5061;49.068;12.058;2023-04-03T20:21:49;2.60;96.60
10042;DHT22;5061;49.068;12.058;2023-04-03T20:25:11;2.60;96.70
10042;DHT22;5061;49.068;12.058;2023-04-03T20:28:32;2.60;96.80
10042;DHT22;5061;49.068;12.058;2023-04-03T20:31:53;2.60;96.90
10042;DHT22;5061;49.068;12.058;2023-04-03T20:35:14;2.60;96.90
10042;DHT22;5061;49.068;12.058;2023-04-03T20:38:35;2.60;97.00
10042;DHT22;5061;49.068;12.058;2023-04-03T20:41:55;2.60;97.10
10042;DHT22;5061;49.068;12.058;2023-04-03T20:45:17;2.60;97.30
10042;DHT22;5061;49.068;12.058;2023-04-03T20:48:38;2.60;97.30
10042;DHT22;5061;49.068;12.058;2023-04-03T20:51:59;2.60;97.50
10042;DHT22;5061;49.068;12.058;2023-04-03T20:55:20;2.60;97.60
10042;DHT22;5061;49.068;12.058;2023-04-03T20:58:42;2.60;97.70
10042;DHT22;5061;49.068;12.058;2023-04-03T21:02:03;2.60;97.80
10042;DHT22;5061;49.068;12.058;2023-04-03T21:05:24;2.60;97.80
10042;DHT22;5061;49.068;12.058;2023-04-03T21:20:03;2.60;98.20
10042;DHT22;5061;49.068;12.058;2023-04-03T21:23:25;2.60;98.20
10042;DHT22;5061;49.068;12.058;2023-04-03T21:26:46;2.60;98.20
10042;DHT22;5061;49.068;12.058;2023-04-03T21:30:07;2.60;98.30
10042;DHT22;5061;49.068;12.058;2023-04-03T21:33:27;2.60;98.40
10042;DHT22;5061;49.068;12.058;2023-04-03T21:36:48;2.60;98.40
10042;DHT22;5061;49.068;12.058;2023-04-03T21:40:09;2.50;98.50
10042;DHT22;5061;49.068;12.058;2023-04-03T21:43:30;2.50;98.50
10042;DHT22;5061;49.068;12.058;2023-04-03T21:46:51;2.50;98.60
10042;DHT22;5061;49.068;12.058;2023-04-03T21:50:13;2.50;98.60
10042;DHT22;5061;49.068;12.058;2023-04-03T21:53:34;2.50;98.60
10042;DHT22;5061;49.068;12.058;2023-04-03T21:56:55;2.50;98.60
10042;DHT22;5061;49.068;12.058;2023-04-03T22:00:16;2.50;98.60
10042;DHT22;5061;49.068;12.058;2023-04-03T22:03:39;2.50;98.70
10042;DHT22;5061;49.068;12.058;2023-04-03T22:07:03;2.40;98.80
10042;DHT22;5061;49.068;12.058;2023-04-03T22:10:23;2.40;98.80
10042;DHT22;5061;49.068;12.058;2023-04-03T22:13:44;2.40;98.90
10042;DHT22;5061;49.068;12.058;2023-04-03T22:17:05;2.40;98.90
10042;DHT22;5061;49.068;12.058;2023-04-03T22:20:26;2.40;99.00
10042;DHT22;5061;49.068;12.058;2023-04-03T22:23:47;2.40;99.00
10042;DHT22;5061;49.068;12.058;2023-04-03T22:27:07;2.40;99.00
10042;DHT22;5061;49.068;12.058;2023-04-03T22:30:28;2.40;99.10
10042;DHT22;5061;49.068;12.058;2023-04-03T22:33:49;2.40;99.20
10042;DHT22;5061;49.068;12.058;2023-04-03T22:37:09;2.40;99.20
10042;DHT22;5061;49.068;12.058;2023-04-03T22:40:30;2.40;99.20
10042;DHT22;5061;49.068;12.058;2023-04-03T22:43:51;2.40;99.20
10042;DHT22;5061;49.068;12.058;2023-04-03T22:47:11;2.40;99.30
10042;DHT22;5061;49.068;12.058;2023-04-03T22:50:32;2.30;99.20
10042;DHT22;5061;49.068;12.058;2023-04-03T22:53:56;2.40;99.30
10042;DHT22;5061;49.068;12.058;2023-04-03T22:57:16;2.30;99.30
10042;DHT22;5061;49.068;12.058;2023-04-03T23:00:37;2.30;99.40